sensor_id;sensor_type;location;lat;lon;timestamp;temperature;humidity
1650;DHT22;822;53.670;8.676;2023-04-25T00:00:06;7.10;93.20
1650;DHT22;822;53.670;8.676;2023-04-25T00:02:35;7.10;93.40
1650;DHT22;822;53.670;8.676;2023-04-25T00:05:03;7.10;93.40
1650;DHT22;822;53.670;8.676;2023-04-25T00:07:30;7.10;92.90
1650;DHT22;822;53.670;8.676;2023-04-25T00:09:58;7.00;93.00
1650;DHT22;822;53.670;8.676;2023-04-25T00:12:25;7.00;93.10
1650;DHT22;822;53.670;8.676;2023-04-25T00:14:54;7.00;92.90
1650;DHT22;822;53.670;8.676;2023-04-25T00:17:22;7.00;92.90
1650;DHT22;822;53.670;8.676;2023-04-25T00:19:51;7.00;92.80
1650;DHT22;822;53.670;8.676;2023-04-25T00:22:22;6.90;92.60
1650;DHT22;822;53.670;8.676;2023-04-25T00:24:49;6.90;92.30
1650;DHT22;822;53.670;8.676;2023-04-25T00:27:16;6.90;92.40
1650;DHT22;822;53.670;8.676;2023-04-25T00:29:43;6.90;92.30
1650;DHT22;822;53.670;8.676;2023-04-25T00:32:10;6.90;92.10
1650;DHT22;822;53.670;8.676;2023-04-25T00:34:37;6.80;92.20
1650;DHT22;822;53.670;8.676;2023-04-25T00:37:06;6.80;91.90
1650;DHT22;822;53.670;8.676;2023-04-25T00:39:33;6.80;90.70
1650;DHT22;822;53.670;8.676;2023-04-25T00:42:03;6.80;90.50
1650;DHT22;822;53.670;8.676;2023-04-25T00:44:31;6.80;90.50
1650;DHT22;822;53.670;8.676;2023-04-25T00:46:59;6.70;90.50
1650;DHT22;822;53.670;8.676;2023-04-25T00:49:27;6.70;90.20
1650;DHT22;822;53.670;8.676;2023-04-25T00:51:54;6.70;90.60
1650;DHT22;822;53.670;8.676;2023-04-25T00:54:23;6.60;90.50
1650;DHT22;822;53.670;8.676;2023-04-25T00:56:51;6.70;90.70
1650;DHT22;822;53.670;8.676;2023-04-25T00:59:19;6.60;90.40
1650;DHT22;822;53.670;8.676;2023-04-25T01:01:47;6.60;90.60
1650;DHT22;822;53.670;8.676;2023-04-25T01:04:14;6.60;90.10
1650;DHT22;822;53.670;8.676;2023-04-25T01:06:41;6.70;90.20
1650;DHT22;822;53.670;8.676;2023-04-25T01:09:08;6.60;90.60
1650;DHT22;822;53.670;8.676;2023-04-25T01:11:39;6.70;90.90
1650;DHT22;822;53.670;8.676;2023-04-25T01:14:06;6.70;91.00
1650;DHT22;822;53.670;8.676;2023-04-25T01:16:34;6.70;90.70
1650;DHT22;822;53.670;8.676;2023-04-25T01:19:03;6.80;89.10
1650;DHT22;822;53.670;8.676;2023-04-25T01:21:33;6.80;89.40
1650;DHT22;822;53.670;8.676;2023-04-25T01:24:00;6.80;88.80
1650;DHT22;822;53.670;8.676;2023-04-25T01:26:27;6.80;87.60
1650;DHT22;822;53.670;8.676;2023-04-25T01:28:55;6.80;87.30
1650;DHT22;822;53.670;8.676;2023-04-25T01:31:22;6.70;88.00
1650;DHT22;822;53.670;8.676;2023-04-25T01:33:49;6.70;89.80
1650;DHT22;822;53.670;8.676;2023-04-25T01:36:18;6.70;88.80
1650;DHT22;822;53.670;8.676;2023-04-25T01:38:52;6.70;88.40
1650;DHT22;822;53.670;8.676;2023-04-25T01:41:21;6.70;87.10
1650;DHT22;822;53.670;8.676;2023-04-25T01:43:49;6.60;84.70
1650;DHT22;822;53.670;8.676;2023-04-25T01:46:16;6.60;85.80
1650;DHT22;822;53.670;8.676;2023-04-25T01:48:44;6.50;86.20
1650;DHT22;822;53.670;8.676;2023-04-25T01:51:11;6.50;85.00
1650;DHT22;822;53.670;8.676;2023-04-25T01:53:38;6.50;85.00
1650;DHT22;822;53.670;8.676;2023-04-25T01:56:07;6.40;84.40
1650;DHT22;822;53.670;8.676;2023-04-25T01:58:34;6.30;82.90
1650;DHT22;822;53.670;8.676;2023-04-25T02:01:01;6.30;83.40
1650;DHT22;822;53.670;8.676;2023-04-25T02:03:30;6.30;82.50
1650;DHT22;822;53.670;8.676;2023-04-25T02:06:00;6.30;83.20
1650;DHT22;822;53.670;8.676;2023-04-25T02:08:27;6.30;82.60
1650;DHT22;822;53.670;8.676;2023-04-25T02:10:54;6.20;81.70
1650;DHT22;822;53.670;8.676;2023-04-25T02:13:23;6.20;81.30
1650;DHT22;822;53.670;8.676;2023-04-25T02:15:50;6.10;82.10
1650;DHT22;822;53.670;8.676;2023-04-25T02:18:17;6.10;82.90
1650;DHT22;822;53.670;8.676;2023-04-25T02:20:44;6.00;83.60
1650;DHT22;822;53.670;8.676;2023-04-25T02:23:11;6.00;84.30
1650;DHT22;822;53.670;8.676;2023-04-25T02:25:39;5.90;85.20
1650;DHT22;822;53.670;8.676;2023-04-25T02:28:07;5.90;86.10
1650;DHT22;822;53.670;8.676;2023-04-25T02:30:36;5.80;87.00
1650;DHT22;822;53.670;8.676;2023-04-25T02:33:03;5.90;87.20
1650;DHT22;822;53.670;8.676;2023-04-25T02:35:30;5.90;87.50
1650;DHT22;822;53.670;8.676;2023-04-25T02:37:57;5.90;87.90
1650;DHT22;822;53.670;8.676;2023-04-25T02:40:24;5.90;87.30
1650;DHT22;822;53.670;8.676;2023-04-25T02:42:51;5.90;86.70
1650;DHT22;822;53.670;8.676;2023-04-25T02:45:18;5.90;87.80
1650;DHT22;822;53.670;8.676;2023-04-25T02:47:47;5.90;88.10
1650;DHT22;822;53.670;8.676;2023-04-25T02:50:14;5.90;88.20
1650;DHT22;822;53.670;8.676;2023-04-25T02:52:41;5.90;88.40
1650;DHT22;822;53.670;8.676;2023-04-25T02:55:09;6.00;88.00
1650;DHT22;822;53.670;8.676;2023-04-25T02:57:36;6.00;87.80
1650;DHT22;822;53.670;8.676;2023-04-25T03:00:04;6.00;86.50
1650;DHT22;822;53.670;8.676;2023-04-25T03:02:31;6.00;86.20
1650;DHT22;822;53.670;8.676;2023-04-25T03:05:02;6.00;86.50
1650;DHT22;822;53.670;8.676;2023-04-25T03:07:30;6.10;86.40
1650;DHT22;822;53.670;8.676;2023-04-25T03:09:57;6.10;86.30
1650;DHT22;822;53.670;8.676;2023-04-25T03:12:24;6.10;84.70
1650;DHT22;822;53.670;8.676;2023-04-25T03:14:51;6.10;85.00
1650;DHT22;822;53.670;8.676;2023-04-25T03:17:19;6.10;85.20
1650;DHT22;822;53.670;8.676;2023-04-25T03:19:46;6.00;84.00
1650;DHT22;822;53.670;8.676;2023-04-25T03:22:18;6.00;83.40
1650;DHT22;822;53.670;8.676;2023-04-25T03:24:45;6.00;82.90
1650;DHT22;822;53.670;8.676;2023-04-25T03:27:12;5.90;82.90
1650;DHT22;822;53.670;8.676;2023-04-25T03:29:39;5.90;83.00
1650;DHT22;822;53.670;8.676;2023-04-25T03:32:07;5.80;82.70
1650;DHT22;822;53.670;8.676;2023-04-25T03:34:34;5.80;83.30
1650;DHT22;822;53.670;8.676;2023-04-25T03:37:01;5.80;83.50
1650;DHT22;822;53.670;8.676;2023-04-25T03:39:29;5.80;83.90
1650;DHT22;822;53.670;8.676;2023-04-25T03:41:56;5.80;84.10
1650;DHT22;822;53.670;8.676;2023-04-25T03:44:24;5.80;84.50
1650;DHT22;822;53.670;8.676;2023-04-25T03:46:51;5.90;85.60
1650;DHT22;822;53.670;8.676;2023-04-25T03:49:18;6.00;89.00
1650;DHT22;822;53.670;8.676;2023-04-25T03:51:45;6.10;90.10
1650;DHT22;822;53.670;8.676;2023-04-25T03:54:12;6.10;90.90
1650;DHT22;822;53.670;8.676;2023-04-25T03:56:41;6.10;90.50
1650;DHT22;822;53.670;8.676;2023-04-25T03:59:08;6.10;89.90
1650;DHT22;822;53.670;8.676;2023-04-25T04:01:35;6.00;89.70
1650;DHT22;822;53.670;8.676;2023-04-25T04:04:02;6.00;90.00
1650;DHT22;822;53.670;8.676;2023-04-25T04:06:32;5.90;90.20
1650;DHT22;822;53.670;8.676;2023-04-25T04:08:59;5.90;90.50
1650;DHT22;822;53.670;8.676;2023-04-25T04:11:27;5.90;90.60
1650;DHT22;822;53.670;8.676;2023-04-25T04:13:55;5.90;90.80
1650;DHT22;822;53.670;8.676;2023-04-25T04:16:22;5.90;90.90
1650;DHT22;822;53.670;8.676;2023-04-25T04:18:49;5.90;88.70
1650;DHT22;822;53.670;8.676;2023-04-25T04:21:16;5.90;89.40
1650;DHT22;822;53.670;8.676;2023-04-25T04:23:43;5.90;88.90
1650;DHT22;822;53.670;8.676;2023-04-25T04:26:10;5.90;88.10
1650;DHT22;822;53.670;8.676;2023-04-25T04:28:38;5.90;88.20
1650;DHT22;822;53.670;8.676;2023-04-25T04:31:07;5.80;88.80
1650;DHT22;822;53.670;8.676;2023-04-25T04:33:35;5.80;89.70
1650;DHT22;822;53.670;8.676;2023-04-25T04:36:02;5.80;90.00
1650;DHT22;822;53.670;8.676;2023-04-25T04:38:30;5.80;90.30
1650;DHT22;822;53.670;8.676;2023-04-25T04:40:57;5.80;90.40
1650;DHT22;822;53.670;8.676;2023-04-25T04:43:25;5.80;90.50
1650;DHT22;822;53.670;8.676;2023-04-25T04:45:52;5.80;90.60
1650;DHT22;822;53.670;8.676;2023-04-25T04:48:23;5.80;90.80
1650;DHT22;822;53.670;8.676;2023-04-25T04:50:50;5.80;91.20
1650;DHT22;822;53.670;8.676;2023-04-25T04:53:17;5.90;91.40
1650;DHT22;822;53.670;8.676;2023-04-25T04:55:44;6.00;91.10
1650;DHT22;822;53.670;8.676;2023-04-25T04:58:11;6.10;90.80
1650;DHT22;822;53.670;8.676;2023-04-25T05:00:39;6.10;90.80
1650;DHT22;822;53.670;8.676;2023-04-25T05:03:09;6.00;90.00
1650;DHT22;822;53.670;8.676;2023-04-25T05:05:38;6.00;89.60
1650;DHT22;822;53.670;8.676;2023-04-25T05:08:05;6.00;88.00
1650;DHT22;822;53.670;8.676;2023-04-25T05:10:33;6.00;88.20
1650;DHT22;822;53.670;8.676;2023-04-25T05:13:00;6.00;88.00
1650;DHT22;822;53.670;8.676;2023-04-25T05:15:27;6.00;87.70
1650;DHT22;822;53.670;8.676;2023-04-25T05:17:54;6.00;88.20
1650;DHT22;822;53.670;8.676;2023-04-25T05:20:24;6.00;88.60
1650;DHT22;822;53.670;8.676;2023-04-25T05:22:53;6.10;89.00
1650;DHT22;822;53.670;8.676;2023-04-25T05:25:20;6.20;89.50
1650;DHT22;822;53.670;8.676;2023-04-25T05:27:47;6.20;90.00
1650;DHT22;822;53.670;8.676;2023-04-25T05:30:14;6.30;88.80
1650;DHT22;822;53.670;8.676;2023-04-25T05:32:41;6.40;89.30
1650;DHT22;822;53.670;8.676;2023-04-25T05:35:08;6.40;90.10
1650;DHT22;822;53.670;8.676;2023-04-25T05:37:35;6.40;90.60
1650;DHT22;822;53.670;8.676;2023-04-25T05:40:05;6.30;90.50
1650;DHT22;822;53.670;8.676;2023-04-25T05:42:33;6.30;90.50
1650;DHT22;822;53.670;8.676;2023-04-25T05:45:00;6.30;90.80
1650;DHT22;822;53.670;8.676;2023-04-25T05:47:28;6.20;91.00
1650;DHT22;822;53.670;8.676;2023-04-25T05:49:55;6.20;91.20
1650;DHT22;822;53.670;8.676;2023-04-25T05:52:22;6.20;91.40
1650;DHT22;822;53.670;8.676;2023-04-25T05:54:49;6.20;91.50
1650;DHT22;822;53.670;8.676;2023-04-25T05:57:25;6.20;91.70
1650;DHT22;822;53.670;8.676;2023-04-25T05:59:52;6.20;92.00
1650;DHT22;822;53.670;8.676;2023-04-25T06:02:20;6.30;91.00
1650;DHT22;822;53.670;8.676;2023-04-25T06:04:49;6.30;90.10
1650;DHT22;822;53.670;8.676;2023-04-25T06:07:16;6.10;90.50
1650;DHT22;822;53.670;8.676;2023-04-25T06:09:49;6.10;90.90
1650;DHT22;822;53.670;8.676;2023-04-25T06:12:17;6.10;91.00
1650;DHT22;822;53.670;8.676;2023-04-25T06:14:45;6.10;91.40
1650;DHT22;822;53.670;8.676;2023-04-25T06:17:12;6.10;91.20
1650;DHT22;822;53.670;8.676;2023-04-25T06:19:39;6.10;91.30
1650;DHT22;822;53.670;8.676;2023-04-25T06:22:07;6.10;91.80
1650;DHT22;822;53.670;8.676;2023-04-25T06:24:35;6.10;91.90
1650;DHT22;822;53.670;8.676;2023-04-25T06:27:02;6.20;92.00
1650;DHT22;822;53.670;8.676;2023-04-25T06:29:29;6.20;92.00
1650;DHT22;822;53.670;8.676;2023-04-25T06:31:58;6.20;91.80
1650;DHT22;822;53.670;8.676;2023-04-25T06:34:25;6.30;91.50
1650;DHT22;822;53.670;8.676;2023-04-25T06:36:52;6.30;91.60
1650;DHT22;822;53.670;8.676;2023-04-25T06:39:19;6.40;91.60
1650;DHT22;822;53.670;8.676;2023-04-25T06:41:48;6.50;91.70
1650;DHT22;822;53.670;8.676;2023-04-25T06:44:15;6.60;91.40
1650;DHT22;822;53.670;8.676;2023-04-25T06:46:43;6.60;91.20
1650;DHT22;822;53.670;8.676;2023-04-25T06:49:11;6.80;91.10
1650;DHT22;822;53.670;8.676;2023-04-25T06:51:38;6.90;91.10
1650;DHT22;822;53.670;8.676;2023-04-25T06:54:05;7.00;90.70
1650;DHT22;822;53.670;8.676;2023-04-25T06:56:32;6.90;89.60
1650;DHT22;822;53.670;8.676;2023-04-25T06:58:59;6.70;85.20
1650;DHT22;822;53.670;8.676;2023-04-25T07:01:27;6.40;87.40
1650;DHT22;822;53.670;8.676;2023-04-25T07:03:54;6.30;89.60
1650;DHT22;822;53.670;8.676;2023-04-25T07:06:24;6.20;88.80
1650;DHT22;822;53.670;8.676;2023-04-25T07:08:53;6.20;90.00
1650;DHT22;822;53.670;8.676;2023-04-25T07:11:21;6.20;90.40
1650;DHT22;822;53.670;8.676;2023-04-25T07:13:48;6.30;90.90
1650;DHT22;822;53.670;8.676;2023-04-25T07:16:16;6.40;91.70
1650;DHT22;822;53.670;8.676;2023-04-25T07:18:43;6.60;92.20
1650;DHT22;822;53.670;8.676;2023-04-25T07:21:10;6.70;92.10
1650;DHT22;822;53.670;8.676;2023-04-25T07:23:39;6.80;90.30
1650;DHT22;822;53.670;8.676;2023-04-25T07:26:06;6.80;90.00
1650;DHT22;822;53.670;8.676;2023-04-25T07:28:34;6.80;88.80
1650;DHT22;822;53.670;8.676;2023-04-25T07:31:01;6.80;90.40
1650;DHT22;822;53.670;8.676;2023-04-25T07:33:29;7.00;89.60
1650;DHT22;822;53.670;8.676;2023-04-25T07:35:56;7.10;90.60
1650;DHT22;822;53.670;8.676;2023-04-25T07:38:23;7.20;91.30
1650;DHT22;822;53.670;8.676;2023-04-25T07:40:52;7.30;92.10
1650;DHT22;822;53.670;8.676;2023-04-25T07:43:19;7.50;91.70
1650;DHT22;822;53.670;8.676;2023-04-25T07:45:46;7.60;91.00
1650;DHT22;822;53.670;8.676;2023-04-25T07:48:17;7.70;90.70
1650;DHT22;822;53.670;8.676;2023-04-25T07:50:44;7.80;91.40
1650;DHT22;822;53.670;8.676;2023-04-25T07:53:11;7.90;90.70
1650;DHT22;822;53.670;8.676;2023-04-25T07:55:39;7.90;90.70
1650;DHT22;822;53.670;8.676;2023-04-25T07:58:08;7.90;89.40
1650;DHT22;822;53.670;8.676;2023-04-25T08:00:37;7.90;88.00
1650;DHT22;822;53.670;8.676;2023-04-25T08:03:04;7.90;81.30
1650;DHT22;822;53.670;8.676;2023-04-25T08:05:32;7.80;78.50
1650;DHT22;822;53.670;8.676;2023-04-25T08:07:59;7.70;79.40
1650;DHT22;822;53.670;8.676;2023-04-25T08:10:27;7.60;81.70
1650;DHT22;822;53.670;8.676;2023-04-25T08:12:55;7.60;83.70
1650;DHT22;822;53.670;8.676;2023-04-25T08:15:23;7.60;85.30
1650;DHT22;822;53.670;8.676;2023-04-25T08:17:51;7.70;87.70
1650;DHT22;822;53.670;8.676;2023-04-25T08:20:18;7.70;86.30
1650;DHT22;822;53.670;8.676;2023-04-25T08:22:45;7.70;87.30
1650;DHT22;822;53.670;8.676;2023-04-25T08:25:14;7.50;89.00
1650;DHT22;822;53.670;8.676;2023-04-25T08:27:41;7.30;89.70
1650;DHT22;822;53.670;8.676;2023-04-25T08:30:09;7.10;90.80
1650;DHT22;822;53.670;8.676;2023-04-25T08:32:38;7.10;91.00
1650;DHT22;822;53.670;8.676;2023-04-25T08:35:05;7.10;91.60
1650;DHT22;822;53.670;8.676;2023-04-25T08:37:35;7.10;91.80
1650;DHT22;822;53.670;8.676;2023-04-25T08:40:04;7.20;91.50
1650;DHT22;822;53.670;8.676;2023-04-25T08:42:33;7.30;90.60
1650;DHT22;822;53.670;8.676;2023-04-25T08:45:01;7.40;89.40
1650;DHT22;822;53.670;8.676;2023-04-25T08:47:33;7.50;87.60
1650;DHT22;822;53.670;8.676;2023-04-25T08:50:05;7.60;86.40
1650;DHT22;822;53.670;8.676;2023-04-25T08:52:39;7.50;80.60
1650;DHT22;822;53.670;8.676;2023-04-25T08:55:12;7.60;84.00
1650;DHT22;822;53.670;8.676;2023-04-25T08:57:40;7.70;85.80
1650;DHT22;822;53.670;8.676;2023-04-25T09:00:13;7.80;86.20
1650;DHT22;822;53.670;8.676;2023-04-25T09:02:42;7.90;85.90
1650;DHT22;822;53.670;8.676;2023-04-25T09:05:12;8.10;87.70
1650;DHT22;822;53.670;8.676;2023-04-25T09:07:39;8.30;88.90
1650;DHT22;822;53.670;8.676;2023-04-25T09:10:07;8.50;85.50
1650;DHT22;822;53.670;8.676;2023-04-25T09:12:35;8.80;82.00
1650;DHT22;822;53.670;8.676;2023-04-25T09:15:05;9.00;83.70
1650;DHT22;822;53.670;8.676;2023-04-25T09:17:32;9.10;80.50
1650;DHT22;822;53.670;8.676;2023-04-25T09:20:12;9.10;81.90
1650;DHT22;822;53.670;8.676;2023-04-25T09:22:39;9.10;81.60
1650;DHT22;822;53.670;8.676;2023-04-25T09:25:10;9.00;83.40
1650;DHT22;822;53.670;8.676;2023-04-25T09:27:49;8.70;80.10
1650;DHT22;822;53.670;8.676;2023-04-25T09:30:17;7.90;82.60
1650;DHT22;822;53.670;8.676;2023-04-25T09:32:44;7.30;86.60
1650;DHT22;822;53.670;8.676;2023-04-25T09:35:23;7.00;86.10
1650;DHT22;822;53.670;8.676;2023-04-25T09:37:52;6.80;87.40
1650;DHT22;822;53.670;8.676;2023-04-25T09:40:19;6.70;87.20
1650;DHT22;822;53.670;8.676;2023-04-25T09:42:46;6.80;89.70
1650;DHT22;822;53.670;8.676;2023-04-25T09:45:13;6.90;90.40
1650;DHT22;822;53.670;8.676;2023-04-25T09:47:41;7.00;90.60
1650;DHT22;822;53.670;8.676;2023-04-25T09:50:20;7.20;90.20
1650;DHT22;822;53.670;8.676;2023-04-25T09:53:02;7.30;85.50
1650;DHT22;822;53.670;8.676;2023-04-25T09:55:32;7.40;86.10
1650;DHT22;822;53.670;8.676;2023-04-25T09:58:04;7.60;86.40
1650;DHT22;822;53.670;8.676;2023-04-25T10:00:35;7.80;89.50
1650;DHT22;822;53.670;8.676;2023-04-25T10:03:07;8.10;87.50
1650;DHT22;822;53.670;8.676;2023-04-25T10:05:41;8.30;86.60
1650;DHT22;822;53.670;8.676;2023-04-25T10:08:10;8.50;85.80
1650;DHT22;822;53.670;8.676;2023-04-25T10:10:40;8.60;86.90
1650;DHT22;822;53.670;8.676;2023-04-25T10:13:08;8.80;88.60
1650;DHT22;822;53.670;8.676;2023-04-25T10:15:35;9.10;83.70
1650;DHT22;822;53.670;8.676;2023-04-25T10:18:05;9.00;80.40
1650;DHT22;822;53.670;8.676;2023-04-25T10:20:33;9.00;82.80
1650;DHT22;822;53.670;8.676;2023-04-25T10:23:08;8.90;82.50
1650;DHT22;822;53.670;8.676;2023-04-25T10:25:39;8.90;77.50
1650;DHT22;822;53.670;8.676;2023-04-25T10:28:11;9.10;86.20
1650;DHT22;822;53.670;8.676;2023-04-25T10:30:57;9.50;81.50
1650;DHT22;822;53.670;8.676;2023-04-25T10:33:30;9.60;79.70
1650;DHT22;822;53.670;8.676;2023-04-25T10:35:59;9.70;79.50
1650;DHT22;822;53.670;8.676;2023-04-25T10:38:36;9.70;81.90
1650;DHT22;822;53.670;8.676;2023-04-25T10:41:05;9.80;78.60
1650;DHT22;822;53.670;8.676;2023-04-25T10:43:38;9.80;77.00
1650;DHT22;822;53.670;8.676;2023-04-25T10:46:19;9.90;76.10
1650;DHT22;822;53.670;8.676;2023-04-25T10:48:50;10.00;73.80
1650;DHT22;822;53.670;8.676;2023-04-25T10:51:22;10.10;72.10
1650;DHT22;822;53.670;8.676;2023-04-25T10:54:02;10.20;71.80
1650;DHT22;822;53.670;8.676;2023-04-25T10:56:30;10.20;72.80
1650;DHT22;822;53.670;8.676;2023-04-25T10:59:08;10.40;74.60
1650;DHT22;822;53.670;8.676;2023-04-25T11:01:37;10.50;74.90
1650;DHT22;822;53.670;8.676;2023-04-25T11:04:05;10.50;76.00
1650;DHT22;822;53.670;8.676;2023-04-25T11:09:34;10.50;72.50
1650;DHT22;822;53.670;8.676;2023-04-25T11:12:02;10.10;72.80
1650;DHT22;822;53.670;8.676;2023-04-25T11:14:29;9.70;72.40
1650;DHT22;822;53.670;8.676;2023-04-25T11:16:57;9.30;74.90
1650;DHT22;822;53.670;8.676;2023-04-25T11:19:27;9.20;77.40
1650;DHT22;822;53.670;8.676;2023-04-25T11:21:55;9.20;81.20
1650;DHT22;822;53.670;8.676;2023-04-25T11:24:26;9.10;82.50
1650;DHT22;822;53.670;8.676;2023-04-25T11:26:55;9.20;82.50
1650;DHT22;822;53.670;8.676;2023-04-25T11:29:22;9.30;81.60
1650;DHT22;822;53.670;8.676;2023-04-25T11:31:50;9.40;76.60
1650;DHT22;822;53.670;8.676;2023-04-25T11:34:17;9.50;76.40
1650;DHT22;822;53.670;8.676;2023-04-25T11:36:45;9.60;76.20
1650;DHT22;822;53.670;8.676;2023-04-25T11:39:12;9.70;80.10
1650;DHT22;822;53.670;8.676;2023-04-25T11:41:41;9.90;75.70
1650;DHT22;822;53.670;8.676;2023-04-25T11:44:10;10.20;78.00
1650;DHT22;822;53.670;8.676;2023-04-25T11:46:37;10.50;75.00
1650;DHT22;822;53.670;8.676;2023-04-25T11:49:04;10.70;69.70
1650;DHT22;822;53.670;8.676;2023-04-25T11:51:38;10.50;67.40
1650;DHT22;822;53.670;8.676;2023-04-25T11:54:05;10.50;71.40
1650;DHT22;822;53.670;8.676;2023-04-25T11:56:33;10.50;69.90
1650;DHT22;822;53.670;8.676;2023-04-25T11:59:01;10.70;71.90
1650;DHT22;822;53.670;8.676;2023-04-25T12:01:30;10.90;73.70
1650;DHT22;822;53.670;8.676;2023-04-25T12:03:58;11.20;73.70
1650;DHT22;822;53.670;8.676;2023-04-25T12:06:37;11.30;69.30
1650;DHT22;822;53.670;8.676;2023-04-25T12:09:08;11.20;70.60
1650;DHT22;822;53.670;8.676;2023-04-25T12:11:41;10.90;71.90
1650;DHT22;822;53.670;8.676;2023-04-25T12:14:08;10.70;70.90
1650;DHT22;822;53.670;8.676;2023-04-25T12:16:44;10.50;72.10
1650;DHT22;822;53.670;8.676;2023-04-25T12:19:14;10.50;72.10
1650;DHT22;822;53.670;8.676;2023-04-25T12:21:41;10.50;72.70
1650;DHT22;822;53.670;8.676;2023-04-25T12:24:10;10.50;72.50
1650;DHT22;822;53.670;8.676;2023-04-25T12:26:49;10.50;72.50
1650;DHT22;822;53.670;8.676;2023-04-25T12:29:21;10.40;73.00
1650;DHT22;822;53.670;8.676;2023-04-25T12:31:51;10.40;71.70
1650;DHT22;822;53.670;8.676;2023-04-25T12:34:19;10.40;74.60
1650;DHT22;822;53.670;8.676;2023-04-25T12:36:46;10.50;74.50
1650;DHT22;822;53.670;8.676;2023-04-25T12:39:17;10.60;71.30
1650;DHT22;822;53.670;8.676;2023-04-25T12:41:45;10.70;69.60
1650;DHT22;822;53.670;8.676;2023-04-25T12:44:13;10.80;68.40
1650;DHT22;822;53.670;8.676;2023-04-25T12:46:41;10.80;67.20
1650;DHT22;822;53.670;8.676;2023-04-25T12:49:09;10.90;71.60
1650;DHT22;822;53.670;8.676;2023-04-25T12:51:38;11.00;70.10
1650;DHT22;822;53.670;8.676;2023-04-25T12:54:07;11.10;69.50
1650;DHT22;822;53.670;8.676;2023-04-25T12:56:35;11.30;71.60
1650;DHT22;822;53.670;8.676;2023-04-25T12:59:02;11.50;71.20
1650;DHT22;822;53.670;8.676;2023-04-25T13:01:33;11.60;70.80
1650;DHT22;822;53.670;8.676;2023-04-25T13:04:00;11.80;70.00
1650;DHT22;822;53.670;8.676;2023-04-25T13:06:29;11.90;69.60
1650;DHT22;822;53.670;8.676;2023-04-25T13:08:56;11.90;63.50
1650;DHT22;822;53.670;8.676;2023-04-25T13:11:23;11.80;66.70
1650;DHT22;822;53.670;8.676;2023-04-25T13:13:50;11.70;66.80
1650;DHT22;822;53.670;8.676;2023-04-25T13:16:17;11.70;69.90
1650;DHT22;822;53.670;8.676;2023-04-25T13:18:49;11.70;68.60
1650;DHT22;822;53.670;8.676;2023-04-25T13:21:16;11.50;63.70
1650;DHT22;822;53.670;8.676;2023-04-25T13:23:45;11.40;69.10
1650;DHT22;822;53.670;8.676;2023-04-25T13:26:12;11.30;63.90
1650;DHT22;822;53.670;8.676;2023-04-25T13:28:40;11.10;64.40
1650;DHT22;822;53.670;8.676;2023-04-25T13:31:07;11.10;68.20
1650;DHT22;822;53.670;8.676;2023-04-25T13:33:34;11.30;71.30
1650;DHT22;822;53.670;8.676;2023-04-25T13:36:04;11.50;68.40
1650;DHT22;822;53.670;8.676;2023-04-25T13:38:31;11.50;67.20
1650;DHT22;822;53.670;8.676;2023-04-25T13:41:00;11.70;69.10
1650;DHT22;822;53.670;8.676;2023-04-25T13:43:27;11.80;69.50
1650;DHT22;822;53.670;8.676;2023-04-25T13:45:54;11.80;67.00
1650;DHT22;822;53.670;8.676;2023-04-25T13:48:21;11.60;64.90
1650;DHT22;822;53.670;8.676;2023-04-25T13:50:48;11.60;64.70
1650;DHT22;822;53.670;8.676;2023-04-25T13:53:16;11.60;67.30
1650;DHT22;822;53.670;8.676;2023-04-25T13:55:43;11.70;67.10
1650;DHT22;822;53.670;8.676;2023-04-25T13:58:12;11.80;65.40
1650;DHT22;822;53.670;8.676;2023-04-25T14:00:39;11.70;66.50
1650;DHT22;822;53.670;8.676;2023-04-25T14:03:09;11.70;65.40
1650;DHT22;822;53.670;8.676;2023-04-25T14:05:36;11.60;63.00
1650;DHT22;822;53.670;8.676;2023-04-25T14:08:08;11.40;63.90
1650;DHT22;822;53.670;8.676;2023-04-25T14:10:36;11.40;66.40
1650;DHT22;822;53.670;8.676;2023-04-25T14:13:05;11.50;67.00
1650;DHT22;822;53.670;8.676;2023-04-25T14:15:34;11.60;68.60
1650;DHT22;822;53.670;8.676;2023-04-25T14:18:01;11.60;67.30
1650;DHT22;822;53.670;8.676;2023-04-25T14:20:28;11.50;66.70
1650;DHT22;822;53.670;8.676;2023-04-25T14:22:56;11.30;63.70
1650;DHT22;822;53.670;8.676;2023-04-25T14:25:24;10.90;62.10
1650;DHT22;822;53.670;8.676;2023-04-25T14:27:51;10.50;63.00
1650;DHT22;822;53.670;8.676;2023-04-25T14:30:19;10.10;66.40
1650;DHT22;822;53.670;8.676;2023-04-25T14:32:48;9.80;68.90
1650;DHT22;822;53.670;8.676;2023-04-25T14:35:15;9.60;71.70
1650;DHT22;822;53.670;8.676;2023-04-25T14:37:42;9.40;72.60
1650;DHT22;822;53.670;8.676;2023-04-25T14:40:10;9.30;72.90
1650;DHT22;822;53.670;8.676;2023-04-25T14:42:38;9.40;75.40
1650;DHT22;822;53.670;8.676;2023-04-25T14:45:07;9.60;74.70
1650;DHT22;822;53.670;8.676;2023-04-25T14:47:34;9.70;73.40
1650;DHT22;822;53.670;8.676;2023-04-25T14:50:03;9.80;75.20
1650;DHT22;822;53.670;8.676;2023-04-25T14:52:30;10.00;76.50
1650;DHT22;822;53.670;8.676;2023-04-25T14:54:58;10.10;71.60
1650;DHT22;822;53.670;8.676;2023-04-25T14:57:27;10.10;74.20
1650;DHT22;822;53.670;8.676;2023-04-25T14:59:54;10.20;74.80
1650;DHT22;822;53.670;8.676;2023-04-25T15:02:21;10.30;71.50
1650;DHT22;822;53.670;8.676;2023-04-25T15:04:48;10.30;72.00
1650;DHT22;822;53.670;8.676;2023-04-25T15:07:17;10.30;71.50
1650;DHT22;822;53.670;8.676;2023-04-25T15:09:44;10.30;71.50
1650;DHT22;822;53.670;8.676;2023-04-25T15:12:12;10.10;70.30
1650;DHT22;822;53.670;8.676;2023-04-25T15:14:39;9.90;69.40
1650;DHT22;822;53.670;8.676;2023-04-25T15:17:06;9.70;70.50
1650;DHT22;822;53.670;8.676;2023-04-25T15:19:33;9.50;71.90
1650;DHT22;822;53.670;8.676;2023-04-25T15:22:01;9.40;73.30
1650;DHT22;822;53.670;8.676;2023-04-25T15:24:30;9.40;75.60
1650;DHT22;822;53.670;8.676;2023-04-25T15:26:57;9.40;78.20
1650;DHT22;822;53.670;8.676;2023-04-25T15:29:24;9.30;76.70
1650;DHT22;822;53.670;8.676;2023-04-25T15:31:52;9.30;77.00
1650;DHT22;822;53.670;8.676;2023-04-25T15:34:19;9.30;74.90
1650;DHT22;822;53.670;8.676;2023-04-25T15:36:47;9.40;77.10
1650;DHT22;822;53.670;8.676;2023-04-25T15:39:14;9.50;77.00
1650;DHT22;822;53.670;8.676;2023-04-25T15:41:43;9.60;75.60
1650;DHT22;822;53.670;8.676;2023-04-25T15:44:10;9.60;75.10
1650;DHT22;822;53.670;8.676;2023-04-25T15:46:41;9.70;70.60
1650;DHT22;822;53.670;8.676;2023-04-25T15:49:09;9.60;70.10
1650;DHT22;822;53.670;8.676;2023-04-25T15:51:36;9.50;70.30
1650;DHT22;822;53.670;8.676;2023-04-25T15:54:03;9.30;69.60
1650;DHT22;822;53.670;8.676;2023-04-25T15:56:30;9.20;73.60
1650;DHT22;822;53.670;8.676;2023-04-25T15:58:58;9.20;73.40
1650;DHT22;822;53.670;8.676;2023-04-25T16:01:26;9.10;72.80
1650;DHT22;822;53.670;8.676;2023-04-25T16:03:55;9.10;73.80
1650;DHT22;822;53.670;8.676;2023-04-25T16:06:23;9.10;74.10
1650;DHT22;822;53.670;8.676;2023-04-25T16:08:51;9.00;72.20
1650;DHT22;822;53.670;8.676;2023-04-25T16:11:21;8.90;72.30
1650;DHT22;822;53.670;8.676;2023-04-25T16:13:49;8.80;74.80
1650;DHT22;822;53.670;8.676;2023-04-25T16:16:17;8.70;76.10
1650;DHT22;822;53.670;8.676;2023-04-25T16:18:44;8.70;76.80
1650;DHT22;822;53.670;8.676;2023-04-25T16:21:11;8.80;76.30
1650;DHT22;822;53.670;8.676;2023-04-25T16:23:41;8.80;74.80
1650;DHT22;822;53.670;8.676;2023-04-25T16:26:09;8.70;74.00
1650;DHT22;822;53.670;8.676;2023-04-25T16:28:36;8.70;75.20
1650;DHT22;822;53.670;8.676;2023-04-25T16:31:04;8.80;75.90
1650;DHT22;822;53.670;8.676;2023-04-25T16:33:33;8.90;75.20
1650;DHT22;822;53.670;8.676;2023-04-25T16:36:00;8.90;74.80
1650;DHT22;822;53.670;8.676;2023-04-25T16:38:27;8.90;75.90
1650;DHT22;822;53.670;8.676;2023-04-25T16:40:54;8.80;74.90